sensor_id;sensor_type;location;lat;lon;timestamp;pressure;altitude;pressure_sealevel;temperature;humidity
4392;BME280;2210;51.938;8.488;2023-01-10T00:00:33;99918.50;;;5.77;100.00
4392;BME280;2210;51.938;8.488;2023-01-10T00:04:36;99917.66;;;5.76;100.00
4392;BME280;2210;51.938;8.488;2023-01-10T00:08:36;99925.91;;;5.69;100.00
4392;BME280;2210;51.938;8.488;2023-01-10T00:12:36;99933.31;;;5.62;100.00
4392;BME280;2210;51.938;8.488;2023-01-10T00:16:55;99940.09;;;5.53;100.00
4392;BME280;2210;51.938;8.488;2023-01-10T00:20:56;99944.75;;;5.46;100.00
4392;BME280;2210;51.938;8.488;2023-01-10T00:29:53;99955.69;;;5.46;100.00
4392;BME280;2210;51.938;8.488;2023-01-10T00:33:55;99979.66;;;5.44;100.00
4392;BME280;2210;51.938;8.488;2023-01-10T00:37:56;99996.50;;;5.47;100.00
4392;BME280;2210;51.938;8.488;2023-01-10T00:42:12;100008.44;;;5.53;100.00
4392;BME280;2210;51.938;8.488;2023-01-10T00:46:34;100018.31;;;5.61;100.00
4392;BME280;2210;51.938;8.488;2023-01-10T00:50:40;100029.81;;;5.69;100.00
4392;BME280;2210;51.938;8.488;2023-01-10T00:54:43;100043.09;;;5.72;100.00
4392;BME280;2210;51.938;8.488;2023-01-10T00:58:46;100044.94;;;5.79;100.00
4392;BME280;2210;51.938;8.488;2023-01-10T01:02:53;100060.31;;;5.80;100.00
4392;BME280;2210;51.938;8.488;2023-01-10T01:06:53;100057.97;;;5.83;100.00
4392;BME280;2210;51.938;8.488;2023-01-10T01:10:54;100076.47;;;5.88;100.00
4392;BME280;2210;51.938;8.488;2023-01-10T01:14:54;100080.88;;;5.89;100.00
4392;BME280;2210;51.938;8.488;2023-01-10T01:18:54;100089.09;;;5.89;100.00
4392;BME280;2210;51.938;8.488;2023-01-10T01:22:54;100107.81;;;5.92;100.00
4392;BME280;2210;51.938;8.488;2023-01-10T01:26:55;100122.53;;;5.91;100.00
4392;BME280;2210;51.938;8.488;2023-01-10T01:31:08;100125.47;;;5.96;100.00
4392;BME280;2210;51.938;8.488;2023-01-10T01:35:11;100123.41;;;5.98;100.00
4392;BME280;2210;51.938;8.488;2023-01-10T01:39:13;100134.34;;;5.98;100.00
4392;BME280;2210;51.938;8.488;2023-01-10T01:43:23;100136.00;;;5.99;100.00
4392;BME280;2210;51.938;8.488;2023-01-10T01:47:30;100154.94;;;5.94;100.00
4392;BME280;2210;51.938;8.488;2023-01-10T01:51:31;100165.91;;;5.94;100.00
4392;BME280;2210;51.938;8.488;2023-01-10T01:55:36;100169.69;;;5.93;100.00
4392;BME280;2210;51.938;8.488;2023-01-10T01:59:42;100178.94;;;5.92;100.00
4392;BME280;2210;51.938;8.488;2023-01-10T02:03:49;100182.13;;;5.89;100.00
4392;BME280;2210;51.938;8.488;2023-01-10T02:07:57;100187.38;;;5.84;100.00
4392;BME280;2210;51.938;8.488;2023-01-10T02:12:01;100197.06;;;5.80;100.00
4392;BME280;2210;51.938;8.488;2023-01-10T02:16:05;100197.50;;;5.77;100.00
4392;BME280;2210;51.938;8.488;2023-01-10T02:20:15;100215.59;;;5.78;100.00
4392;BME280;2210;51.938;8.488;2023-01-10T02:29:43;100220.63;;;5.87;100.00
4392;BME280;2210;51.938;8.488;2023-01-10T02:43:04;100234.72;;;5.84;100.00
4392;BME280;2210;51.938;8.488;2023-01-10T02:47:19;100239.38;;;5.84;100.00
4392;BME280;2210;51.938;8.488;2023-01-10T02:51:24;100241.88;;;5.85;100.00
4392;BME280;2210;51.938;8.488;2023-01-10T03:00:09;100253.47;;;5.81;100.00
4392;BME280;2210;51.938;8.488;2023-01-10T03:08:38;100257.25;;;5.80;100.00
4392;BME280;2210;51.938;8.488;2023-01-10T03:12:47;100261.47;;;5.76;100.00
4392;BME280;2210;51.938;8.488;2023-01-10T03:17:01;100277.44;;;5.79;100.00
4392;BME280;2210;51.938;8.488;2023-01-10T03:21:10;100272.81;;;5.79;100.00
4392;BME280;2210;51.938;8.488;2023-01-10T03:25:13;100274.94;;;5.84;100.00
4392;BME280;2210;51.938;8.488;2023-01-10T03:29:35;100273.47;;;5.81;100.00
4392;BME280;2210;51.938;8.488;2023-01-10T03:33:37;100289.22;;;5.79;100.00
4392;BME280;2210;51.938;8.488;2023-01-10T03:37:58;100300.59;;;5.83;100.00
4392;BME280;2210;51.938;8.488;2023-01-10T03:42:16;100315.75;;;5.79;100.00
4392;BME280;2210;51.938;8.488;2023-01-10T03:51:09;100330.69;;;5.83;100.00
4392;BME280;2210;51.938;8.488;2023-01-10T03:55:14;100333.00;;;5.79;100.00
4392;BME280;2210;51.938;8.488;2023-01-10T03:59:36;100341.41;;;5.78;100.00
4392;BME280;2210;51.938;8.488;2023-01-10T04:03:36;100350.28;;;5.73;100.00
4392;BME280;2210;51.938;8.488;2023-01-10T04:07:36;100347.09;;;5.76;100.00
4392;BME280;2210;51.938;8.488;2023-01-10T04:11:46;100357.81;;;5.71;100.00
4392;BME280;2210;51.938;8.488;2023-01-10T04:15:46;100364.16;;;5.71;100.00
4392;BME280;2210;51.938;8.488;2023-01-10T04:19:47;100375.94;;;5.72;100.00
4392;BME280;2210;51.938;8.488;2023-01-10T04:23:47;100375.94;;;5.72;100.00
4392;BME280;2210;51.938;8.488;2023-01-10T04:27:56;100391.50;;;5.71;100.00
4392;BME280;2210;51.938;8.488;2023-01-10T04:31:56;100393.22;;;5.72;100.00
4392;BME280;2210;51.938;8.488;2023-01-10T04:35:57;100391.09;;;5.74;100.00
4392;BME280;2210;51.938;8.488;2023-01-10T04:39:57;100390.25;;;5.67;100.00
4392;BME280;2210;51.938;8.488;2023-01-10T04:44:00;100388.13;;;5.63;100.00
4392;BME280;2210;51.938;8.488;2023-01-10T04:48:04;100394.03;;;5.66;100.00
4392;BME280;2210;51.938;8.488;2023-01-10T04:52:05;100408.13;;;5.63;100.00
4392;BME280;2210;51.938;8.488;2023-01-10T04:56:27;100405.38;;;5.63;100.00
4392;BME280;2210;51.938;8.488;2023-01-10T05:00:33;100411.25;;;5.60;100.00
4392;BME280;2210;51.938;8.488;2023-01-10T05:04:45;100417.16;;;5.64;100.00
4392;BME280;2210;51.938;8.488;2023-01-10T05:08:45;100415.06;;;5.66;100.00
4392;BME280;2210;51.938;8.488;2023-01-10T05:12:48;100424.31;;;5.65;100.00
4392;BME280;2210;51.938;8.488;2023-01-10T05:16:49;100434.63;;;5.69;100.00
4392;BME280;2210;51.938;8.488;2023-01-10T05:20:49;100439.72;;;5.72;100.00
4392;BME280;2210;51.938;8.488;2023-01-10T05:24:50;100449.38;;;5.68;100.00
4392;BME280;2210;51.938;8.488;2023-01-10T05:28:53;100454.19;;;5.66;100.00
4392;BME280;2210;51.938;8.488;2023-01-10T05:32:56;100459.25;;;5.69;100.00
4392;BME280;2210;51.938;8.488;2023-01-10T05:36:56;100461.13;;;5.62;100.00
4392;BME280;2210;51.938;8.488;2023-01-10T05:40:57;100480.25;;;5.55;100.00
4392;BME280;2210;51.938;8.488;2023-01-10T05:45:05;100491.63;;;5.59;100.00
4392;BME280;2210;51.938;8.488;2023-01-10T05:49:05;100493.09;;;5.55;100.00
4392;BME280;2210;51.938;8.488;2023-01-10T05:53:18;100489.09;;;5.51;100.00
4392;BME280;2210;51.938;8.488;2023-01-10T05:57:19;100500.22;;;5.49;100.00
4392;BME280;2210;51.938;8.488;2023-01-10T06:01:30;100507.16;;;5.52;100.00
4392;BME280;2210;51.938;8.488;2023-01-10T06:05:30;100506.13;;;5.53;100.00
4392;BME280;2210;51.938;8.488;2023-01-10T06:09:42;100517.28;;;5.58;100.00
4392;BME280;2210;51.938;8.488;2023-01-10T06:13:42;100504.25;;;5.60;100.00
4392;BME280;2210;51.938;8.488;2023-01-10T06:17:46;100517.91;;;5.60;100.00
4392;BME280;2210;51.938;8.488;2023-01-10T06:21:49;100521.06;;;5.57;100.00
4392;BME280;2210;51.938;8.488;2023-01-10T06:25:49;100529.94;;;5.59;100.00
4392;BME280;2210;51.938;8.488;2023-01-10T06:29:50;100540.88;;;5.59;100.00
4392;BME280;2210;51.938;8.488;2023-01-10T06:33:59;100545.69;;;5.57;100.00
4392;BME280;2210;51.938;8.488;2023-01-10T06:37:59;100557.28;;;5.59;100.00
4392;BME280;2210;51.938;8.488;2023-01-10T06:41:59;100560.00;;;5.59;100.00
4392;BME280;2210;51.938;8.488;2023-01-10T06:46:00;100568.63;;;5.63;100.00
4392;BME280;2210;51.938;8.488;2023-01-10T06:50:03;100571.81;;;5.66;100.00
4392;BME280;2210;51.938;8.488;2023-01-10T06:54:03;100582.50;;;5.61;100.00
4392;BME280;2210;51.938;8.488;2023-01-10T06:58:04;100589.69;;;5.62;100.00
4392;BME280;2210;51.938;8.488;2023-01-10T07:02:09;100582.50;;;5.61;100.00
4392;BME280;2210;51.938;8.488;2023-01-10T07:06:16;100592.41;;;5.62;100.00
4392;BME280;2210;51.938;8.488;2023-01-10T07:10:20;100589.09;;;5.73;100.00
4392;BME280;2210;51.938;8.488;2023-01-10T07:14:23;100599.63;;;5.70;100.00
4392;BME280;2210;51.938;8.488;2023-01-10T07:18:23;100612.44;;;5.69;100.00
4392;BME280;2210;51.938;8.488;2023-01-10T07:22:29;100613.28;;;5.70;100.00
4392;BME280;2210;51.938;8.488;2023-01-10T07:26:33;100624.81;;;5.65;100.00
4392;BME280;2210;51.938;8.488;2023-01-10T07:30:39;100621.84;;;5.60;100.00
4392;BME280;2210;51.938;8.488;2023-01-10T07:34:43;100641.44;;;5.64;100.00
4392;BME280;2210;51.938;8.488;2023-01-10T07:38:43;100642.47;;;5.63;100.00
4392;BME280;2210;51.938;8.488;2023-01-10T07:42:43;100638.50;;;5.65;100.00
4392;BME280;2210;51.938;8.488;2023-01-10T07:46:44;100640.63;;;5.63;100.00
4392;BME280;2210;51.938;8.488;2023-01-10T07:50:44;100656.16;;;5.63;100.00
4392;BME280;2210;51.938;8.488;2023-01-10T07:54:44;100646.91;;;5.64;100.00
4392;BME280;2210;51.938;8.488;2023-01-10T07:58:44;100656.16;;;5.63;100.00
4392;BME280;2210;51.938;8.488;2023-01-10T08:02:45;100656.59;;;5.66;100.00
4392;BME280;2210;51.938;8.488;2023-01-10T08:06:46;100660.81;;;5.62;100.00
4392;BME280;2210;51.938;8.488;2023-01-10T08:10:46;100673.44;;;5.63;100.00
4392;BME280;2210;51.938;8.488;2023-01-10T08:14:47;100671.78;;;5.69;100.00
4392;BME280;2210;51.938;8.488;2023-01-10T08:18:47;100690.09;;;5.68;100.00
4392;BME280;2210;51.938;8.488;2023-01-10T08:22:50;100685.47;;;5.69;100.00
4392;BME280;2210;51.938;8.488;2023-01-10T08:26:50;100682.72;;;5.69;100.00
4392;BME280;2210;51.938;8.488;2023-01-10T08:30:51;100693.47;;;5.70;100.00
4392;BME280;2210;51.938;8.488;2023-01-10T08:34:57;100696.66;;;5.74;100.00
4392;BME280;2210;51.938;8.488;2023-01-10T08:38:58;100702.94;;;5.74;100.00
4392;BME280;2210;51.938;8.488;2023-01-10T08:43:00;100723.59;;;5.77;100.00
4392;BME280;2210;51.938;8.488;2023-01-10T08:47:04;100714.56;;;5.77;100.00
4392;BME280;2210;51.938;8.488;2023-01-10T08:51:07;100704.25;;;5.79;100.00
4392;BME280;2210;51.938;8.488;2023-01-10T08:55:15;100714.78;;;5.82;100.00
4392;BME280;2210;51.938;8.488;2023-01-10T08:59:16;100714.38;;;5.85;100.00
4392;BME280;2210;51.938;8.488;2023-01-10T09:03:16;100722.38;;;5.86;100.00
4392;BME280;2210;51.938;8.488;2023-01-10T09:07:18;100718.22;;;5.90;100.00
4392;BME280;2210;51.938;8.488;2023-01-10T09:11:24;100724.13;;;5.94;100.00
4392;BME280;2210;51.938;8.488;2023-01-10T09:15:36;100729.84;;;5.99;100.00
4392;BME280;2210;51.938;8.488;2023-01-10T09:19:39;100724.97;;;5.95;100.00
4392;BME280;2210;51.938;8.488;2023-01-10T09:23:40;100721.84;;;5.98;100.00
4392;BME280;2210;51.938;8.488;2023-01-10T09:27:45;100719.59;;;6.08;100.00
4392;BME280;2210;51.938;8.488;2023-01-10T09:31:45;100726.97;;;6.14;100.00
4392;BME280;2210;51.938;8.488;2023-01-10T09:35:48;100723.00;;;6.17;100.00
4392;BME280;2210;51.938;8.488;2023-01-10T09:39:48;100732.69;;;6.19;100.00
4392;BME280;2210;51.938;8.488;2023-01-10T09:49:01;100756.50;;;6.19;100.00
4392;BME280;2210;51.938;8.488;2023-01-10T09:53:11;100764.28;;;6.22;100.00
4392;BME280;2210;51.938;8.488;2023-01-10T09:57:20;100761.81;;;6.27;100.00
4392;BME280;2210;51.938;8.488;2023-01-10T10:01:34;100765.16;;;6.29;100.00
4392;BME280;2210;51.938;8.488;2023-01-10T10:05:56;100766.03;;;6.30;100.00
4392;BME280;2210;51.938;8.488;2023-01-10T10:09:59;100770.25;;;6.32;100.00
4392;BME280;2210;51.938;8.488;2023-01-10T10:19:16;100770.47;;;6.37;100.00
4392;BME280;2210;51.938;8.488;2023-01-10T10:37:44;100758.28;;;6.47;100.00
4392;BME280;2210;51.938;8.488;2023-01-10T10:41:52;100751.13;;;6.46;100.00
4392;BME280;2210;51.938;8.488;2023-01-10T10:46:12;100762.06;;;6.46;100.00
4392;BME280;2210;51.938;8.488;2023-01-10T10:50:32;100764.44;;;6.49;100.00
4392;BME280;2210;51.938;8.488;2023-01-10T10:54:34;100765.25;;;6.49;100.00
4392;BME280;2210;51.938;8.488;2023-01-10T10:58:35;100761.47;;;6.50;100.00
4392;BME280;2210;51.938;8.488;2023-01-10T11:02:49;100768.00;;;6.49;100.00
4392;BME280;2210;51.938;8.488;2023-01-10T11:07:03;100757.28;;;6.54;100.00
4392;BME280;2210;51.938;8.488;2023-01-10T11:11:15;100754.34;;;6.56;100.00
4392;BME280;2210;51.938;8.488;2023-01-10T11:19:34;100745.09;;;6.64;100.00
4392;BME280;2210;51.938;8.488;2023-01-10T11:23:59;100753.09;;;6.65;100.00
4392;BME280;2210;51.938;8.488;2023-01-10T11:28:02;100744.06;;;6.65;100.00
4392;BME280;2210;51.938;8.488;2023-01-10T11:32:13;100746.97;;;6.63;100.00
4392;BME280;2210;51.938;8.488;2023-01-10T11:36:15;100738.56;;;6.65;100.00
4392;BME280;2210;51.938;8.488;2023-01-10T11:40:25;100728.69;;;6.70;100.00
4392;BME280;2210;51.938;8.488;2023-01-10T11:44:27;100734.38;;;6.75;100.00
4392;BME280;2210;51.938;8.488;2023-01-10T11:52:59;100719.88;;;6.95;100.00
4392;BME280;2210;51.938;8.488;2023-01-10T11:57:05;100722.81;;;6.94;100.00
4392;BME280;2210;51.938;8.488;2023-01-10T12:01:45;100718.16;;;6.94;100.00
4392;BME280;2210;51.938;8.488;2023-01-10T12:05:50;100718.41;;;7.06;100.00
4392;BME280;2210;51.938;8.488;2023-01-10T12:09:58;100721.13;;;6.99;100.00
4392;BME280;2210;51.938;8.488;2023-01-10T12:14:00;100736.31;;;7.02;100.00
4392;BME280;2210;51.938;8.488;2023-01-10T12:18:03;100730.00;;;7.01;100.00
4392;BME280;2210;51.938;8.488;2023-01-10T12:22:06;100735.66;;;6.93;100.00
4392;BME280;2210;51.938;8.488;2023-01-10T12:26:14;100719.88;;;6.95;100.00
4392;BME280;2210;51.938;8.488;2023-01-10T12:30:33;100728.09;;;7.02;100.00
4392;BME280;2210;51.938;8.488;2023-01-10T12:34:54;100728.72;;;7.04;100.00
4392;BME280;2210;51.938;8.488;2023-01-10T12:39:21;100729.38;;;7.06;100.00
4392;BME280;2210;51.938;8.488;2023-01-10T12:43:42;100725.97;;;7.04;100.00
4392;BME280;2210;51.938;8.488;2023-01-10T12:48:11;100732.94;;;7.06;100.00
4392;BME280;2210;51.938;8.488;2023-01-10T12:52:26;100721.56;;;7.03;100.00
4392;BME280;2210;51.938;8.488;2023-01-10T12:56:31;100714.59;;;7.07;100.00
4392;BME280;2210;51.938;8.488;2023-01-10T13:00:41;100725.38;;;7.08;100.00
4392;BME280;2210;51.938;8.488;2023-01-10T13:04:54;100719.00;;;7.08;100.00
4392;BME280;2210;51.938;8.488;2023-01-10T13:09:02;100714.81;;;7.12;100.00
4392;BME280;2210;51.938;8.488;2023-01-10T13:13:37;100701.97;;;7.13;100.00
4392;BME280;2210;51.938;8.488;2023-01-10T13:17:48;100693.50;;;7.07;100.00
4392;BME280;2210;51.938;8.488;2023-01-10T13:22:21;100699.63;;;7.09;100.00
4392;BME280;2210;51.938;8.488;2023-01-10T13:26:22;100694.56;;;7.06;100.00
4392;BME280;2210;51.938;8.488;2023-01-10T13:30:35;100684.47;;;7.07;100.00
4392;BME280;2210;51.938;8.488;2023-01-10T13:34:41;100671.78;;;7.06;100.00
4392;BME280;2210;51.938;8.488;2023-01-10T13:43:40;100676.00;;;7.08;100.00
4392;BME280;2210;51.938;8.488;2023-01-10T13:48:00;100655.56;;;7.04;100.00
4392;BME280;2210;51.938;8.488;2023-01-10T13:52:28;100664.00;;;7.03;100.00
4392;BME280;2210;51.938;8.488;2023-01-10T14:05:06;100659.13;;;6.98;100.00
4392;BME280;2210;51.938;8.488;2023-01-10T14:13:19;100656.81;;;6.95;100.00
4392;BME280;2210;51.938;8.488;2023-01-10T14:17:29;100650.50;;;6.95;100.00
4392;BME280;2210;51.938;8.488;2023-01-10T14:21:38;100649.63;;;6.94;100.00
4392;BME280;2210;51.938;8.488;2023-01-10T14:25:40;100651.75;;;6.92;100.00
4392;BME280;2210;51.938;8.488;2023-01-10T14:29:58;100644.81;;;6.89;100.00
4392;BME280;2210;51.938;8.488;2023-01-10T14:33:59;100641.84;;;6.91;100.00
4392;BME280;2210;51.938;8.488;2023-01-10T14:38:03;100628.78;;;6.86;100.00
4392;BME280;2210;51.938;8.488;2023-01-10T14:42:06;100631.72;;;6.85;100.00
4392;BME280;2210;51.938;8.488;2023-01-10T14:46:14;100629.84;;;6.85;100.00
4392;BME280;2210;51.938;8.488;2023-01-10T14:50:27;100630.66;;;6.86;100.00
4392;BME280;2210;51.938;8.488;2023-01-10T14:54:29;100621.19;;;6.82;100.00
4392;BME280;2210;51.938;8.488;2023-01-10T14:58:29;100615.69;;;6.82;100.00
4392;BME280;2210;51.938;8.488;2023-01-10T15:02:32;100611.47;;;6.79;100.00
4392;BME280;2210;51.938;8.488;2023-01-10T15:07:02;100600.13;;;6.75;100.00
4392;BME280;2210;51.938;8.488;2023-01-10T15:11:10;100598.41;;;6.74;100.00
4392;BME280;2210;51.938;8.488;2023-01-10T15:15:32;100593.16;;;6.73;100.00
4392;BME280;2210;51.938;8.488;2023-01-10T15:19:36;100589.56;;;6.72;100.00
4392;BME280;2210;51.938;8.488;2023-01-10T15:23:39;100585.13;;;6.71;100.00
4392;BME280;2210;51.938;8.488;2023-01-10T15:27:52;100573.53;;;6.69;100.00
4392;BME280;2210;51.938;8.488;2023-01-10T15:32:08;100573.13;;;6.66;100.00
4392;BME280;2210;51.938;8.488;2023-01-10T15:36:16;100572.50;;;6.64;100.00
4392;BME280;2210;51.938;8.488;2023-01-10T15:40:36;100567.44;;;6.61;100.00
4392;BME280;2210;51.938;8.488;2023-01-10T15:44:50;100562.16;;;6.59;100.00
4392;BME280;2210;51.938;8.488;2023-01-10T15:49:20;100559.63;;;6.57;100.00
4392;BME280;2210;51.938;8.488;2023-01-10T15:53:49;100546.16;;;6.56;100.00
4392;BME280;2210;51.938;8.488;2023-01-10T15:57:56;100542.78;;;6.54;100.00
4392;BME280;2210;51.938;8.488;2023-01-10T16:02:19;100538.97;;;6.55;100.00
4392;BME280;2210;51.938;8.488;2023-01-10T16:06:29;100532.66;;;6.48;100.00
4392;BME280;2210;51.938;8.488;2023-01-10T16:10:30;100536.03;;;6.50;100.00
4392;BME280;2210;51.938;8.488;2023-01-10T16:14:36;100526.34;;;6.47;100.00
4392;BME280;2210;51.938;8.488;2023-01-10T16:18:43;100520.00;;;6.47;100.00
4392;BME280;2210;51.938;8.488;2023-01-10T16:22:49;100522.53;;;6.48;100.00
4392;BME280;2210;51.938;8.488;2023-01-10T16:26:50;100508.44;;;6.45;100.00
4392;BME280;2210;51.938;8.488;2023-01-10T16:30:50;100501.88;;;6.46;100.00
4392;BME280;2210;51.938;8.488;2023-01-10T16:34:56;100490.94;;;6.46;100.00
4392;BME280;2210;51.938;8.488;2023-01-10T16:39:13;100483.78;;;6.45;100.00
4392;BME280;2210;51.938;8.488;2023-01-10T16:43:20;100473.06;;;6.43;100.00
4392;BME280;2210;51.938;8.488;2023-01-10T16:47:20;100459.34;;;6.43;100.00
4392;BME280;2210;51.938;8.488;2023-01-10T16:51:22;100461.88;;;6.45;98.70
4392;BME280;2210;51.938;8.488;2023-01-10T16:55:39;100463.53;;;6.46;97.81
4392;BME280;2210;51.938;8.488;2023-01-10T16:59:40;100466.94;;;6.48;97.13
4392;BME280;2210;51.938;8.488;2023-01-10T17:03:40;100460.63;;;6.47;96.77
4392;BME280;2210;51.938;8.488;2023-01-10T17:07:40;100460.81;;;6.46;96.49
4392;BME280;2210;51.938;8.488;2023-01-10T17:11:41;100456.19;;;6.46;96.66
4392;BME280;2210;51.938;8.488;2023-01-10T17:15:44;100442.72;;;6.45;96.28
4392;BME280;2210;51.938;8.488;2023-01-10T17:19:50;100436.16;;;6.46;95.87
4392;BME280;2210;51.938;8.488;2023-01-10T17:23:53;100443.53;;;6.45;96.68
4392;BME280;2210;51.938;8.488;2023-01-10T17:27:53;100442.72;;;6.45;96.19
4392;BME280;2210;51.938;8.488;2023-01-10T17:31:54;100442.94;;;6.43;96.35
4392;BME280;2210;51.938;8.488;2023-01-10T17:35:57;100439.75;;;6.46;96.13
4392;BME280;2210;51.938;8.488;2023-01-10T17:40:01;100443.31;;;6.47;96.38
4392;BME280;2210;51.938;8.488;2023-01-10T17:44:04;100430.69;;;6.46;95.76
4392;BME280;2210;51.938;8.488;2023-01-10T17:48:04;100424.81;;;6.49;95.17
4392;BME280;2210;51.938;8.488;2023-01-10T17:52:04;100418.47;;;6.48;96.01
4392;BME280;2210;51.938;8.488;2023-01-10T17:56:17;100404.97;;;6.47;96.97
4392;BME280;2210;51.938;8.488;2023-01-10T18:00:32;100392.97;;;6.48;96.17
4392;BME280;2210;51.938;8.488;2023-01-10T18:04:32;100390.88;;;6.50;96.18
4392;BME280;2210;51.938;8.488;2023-01-10T18:08:36;100376.53;;;6.48;96.55
4392;BME280;2210;51.938;8.488;2023-01-10T18:12:39;100360.13;;;6.48;96.71
4392;BME280;2210;51.938;8.488;2023-01-10T18:16:52;100346.63;;;6.46;97.25
4392;BME280;2210;51.938;8.488;2023-01-10T18:20:53;100344.94;;;6.52;96.86
4392;BME280;2210;51.938;8.488;2023-01-10T18:24:56;100338.63;;;6.51;97.37
4392;BME280;2210;51.938;8.488;2023-01-10T18:28:59;100316.50;;;6.53;97.26
4392;BME280;2210;51.938;8.488;2023-01-10T18:33:06;100321.94;;;6.60;97.16
4392;BME280;2210;51.938;8.488;2023-01-10T18:37:16;100325.72;;;6.65;96.42
4392;BME280;2210;51.938;8.488;2023-01-10T18:41:18;100309.06;;;6.67;96.96
4392;BME280;2210;51.938;8.488;2023-01-10T18:45:19;100306.75;;;6.70;96.85
4392;BME280;2210;51.938;8.488;2023-01-10T18:49:21;100301.66;;;6.67;98.80
4392;BME280;2210;51.938;8.488;2023-01-10T18:53:21;100299.81;;;6.61;100.00
4392;BME280;2210;51.938;8.488;2023-01-10T18:57:31;100292.44;;;6.55;100.00
4392;BME280;2210;51.938;8.488;2023-01-10T19:01:31;100293.75;;;6.46;100.00
4392;BME280;2210;51.938;8.488;2023-01-10T19:05:31;100298.41;;;6.38;100.00
4392;BME280;2210;51.938;8.488;2023-01-10T19:09:32;100301.81;;;6.34;100.00
4392;BME280;2210;51.938;8.488;2023-01-10T19:13:33;100285.41;;;6.27;100.00
4392;BME280;2210;51.938;8.488;2023-01-10T19:17:36;100276.34;;;6.20;100.00
4392;BME280;2210;51.938;8.488;2023-01-10T19:21:36;100269.84;;;6.14;100.00
4392;BME280;2210;51.938;8.488;2023-01-10T19:25:38;100264.38;;;6.07;100.00
4392;BME280;2210;51.938;8.488;2023-01-10T19:29:47;100253.88;;;6.04;100.00
4392;BME280;2210;51.938;8.488;2023-01-10T19:33:52;100239.56;;;6.02;100.00
4392;BME280;2210;51.938;8.488;2023-01-10T19:37:52;100238.31;;;5.98;100.00
4392;BME280;2210;51.938;8.488;2023-01-10T19:41:58;100237.88;;;5.95;100.00
4392;BME280;2210;51.938;8.488;2023-01-10T19:46:10;100238.69;;;5.95;100.00
4392;BME280;2210;51.938;8.488;2023-01-10T19:50:10;100232.84;;;5.91;100.00
4392;BME280;2210;51.938;8.488;2023-01-10T19:54:17;100227.53;;;5.90;100.00
4392;BME280;2210;51.938;8.488;2023-01-10T19:58:17;100213.47;;;5.86;100.00
4392;BME280;2210;51.938;8.488;2023-01-10T20:02:23;100216.22;;;5.80;100.00
4392;BME280;2210;51.938;8.488;2023-01-10T20:06:31;100220.84;;;5.79;100.00
4392;BME280;2210;51.938;8.488;2023-01-10T20:10:36;100209.06;;;5.79;100.00
4392;BME280;2210;51.938;8.488;2023-01-10T20:14:37;100201.28;;;5.76;100.00
4392;BME280;2210;51.938;8.488;2023-01-10T20:18:38;100196.88;;;5.74;100.00
4392;BME280;2210;51.938;8.488;2023-01-10T20:22:38;100190.34;;;5.76;100.00
4392;BME280;2210;51.938;8.488;2023-01-10T20:26:38;100188.66;;;5.74;100.00
4392;BME280;2210;51.938;8.488;2023-01-10T20:30:39;100172.91;;;5.77;100.00
4392;BME280;2210;51.938;8.488;2023-01-10T20:34:40;100164.47;;;5.78;100.00
4392;BME280;2210;51.938;8.488;2023-01-10T20:38:49;100164.25;;;5.80;100.00
4392;BME280;2210;51.938;8.488;2023-01-10T20:42:53;100155.59;;;5.83;100.00
4392;BME280;2210;51.938;8.488;2023-01-10T20:46:59;100141.94;;;5.83;100.00
4392;BME280;2210;51.938;8.488;2023-01-10T20:50:59;100149.50;;;5.87;100.00
4392;BME280;2210;51.938;8.488;2023-01-10T20:55:00;100142.72;;;5.90;100.00
4392;BME280;2210;51.938;8.488;2023-01-10T20:59:00;100142.94;;;5.95;100.00
4392;BME280;2210;51.938;8.488;2023-01-10T21:03:01;100125.28;;;5.98;100.00
4392;BME280;2210;51.938;8.488;2023-01-10T21:07:04;100127.56;;;6.01;100.00
4392;BME280;2210;51.938;8.488;2023-01-10T21:11:07;100127.53;;;6.07;100.00
4392;BME280;2210;51.938;8.488;2023-01-10T21:15:08;100128.78;;;6.12;100.00
4392;BME280;2210;51.938;8.488;2023-01-10T21:19:11;100111.09;;;6.14;100.00
4392;BME280;2210;51.938;8.488;2023-01-10T21:23:15;100111.50;;;6.18;100.00
4392;BME280;2210;51.938;8.488;2023-01-10T21:27:19;100110.22;;;6.20;100.00
4392;BME280;2210;51.938;8.488;2023-01-10T21:31:23;100105.53;;;6.28;100.00
4392;BME280;2210;51.938;8.488;2023-01-10T21:35:26;100082.78;;;6.34;100.00
4392;BME280;2210;51.938;8.488;2023-01-10T21:39:29;100079.53;;;6.44;100.00
4392;BME280;2210;51.938;8.488;2023-01-10T21:43:30;100068.78;;;6.49;100.00
4392;BME280;2210;51.938;8.488;2023-01-10T21:47:34;100081.22;;;6.45;100.00
4392;BME280;2210;51.938;8.488;2023-01-10T21:51:38;100077.81;;;6.49;100.00
4392;BME280;2210;51.938;8.488;2023-01-10T21:55:42;100067.09;;;6.48;100.00
4392;BME280;2210;51.938;8.488;2023-01-10T21:59:45;100057.88;;;6.42;100.00
4392;BME280;2210;51.938;8.488;2023-01-10T22:03:45;100055.78;;;6.37;100.00
4392;BME280;2210;51.938;8.488;2023-01-10T22:07:46;100057.63;;;6.44;100.00
4392;BME280;2210;51.938;8.488;2023-01-10T22:11:47;100038.66;;;6.49;100.00
4392;BME280;2210;51.938;8.488;2023-01-10T22:16:02;100043.00;;;6.56;100.00
4392;BME280;2210;51.938;8.488;2023-01-10T22:20:03;100025.44;;;6.64;100.00
4392;BME280;2210;51.938;8.488;2023-01-10T22:24:04;100025.22;;;6.66;100.00
4392;BME280;2210;51.938;8.488;2023-01-10T22:28:04;100022.88;;;6.69;100.00
4392;BME280;2210;51.938;8.488;2023-01-10T22:32:05;100026.84;;;6.73;100.00
4392;BME280;2210;51.938;8.488;2023-01-10T22:36:07;100012.91;;;6.75;100.00
4392;BME280;2210;51.938;8.488;2023-01-10T22:40:17;100009.28;;;6.81;100.00
4392;BME280;2210;51.938;8.488;2023-01-10T22:44:23;99995.28;;;6.89;100.00
4392;BME280;2210;51.938;8.488;2023-01-10T22:48:25;99989.59;;;6.91;100.00
4392;BME280;2210;51.938;8.488;2023-01-10T22:52:34;99976.28;;;6.95;100.00
4392;BME280;2210;51.938;8.488;2023-01-10T22:56:35;99998.13;;;7.01;100.00
4392;BME280;2210;51.938;8.488;2023-01-10T23:00:49;99994.53;;;7.01;100.00
4392;BME280;2210;51.938;8.488;2023-01-10T23:04:52;99986.72;;;7.04;100.00
4392;BME280;2210;51.938;8.488;2023-01-10T23:08:55;99978.66;;;7.09;100.00
4392;BME280;2210;51.938;8.488;2023-01-10T23:13:01;99969.97;;;7.13;100.00
4392;BME280;2210;51.938;8.488;2023-01-10T23:17:04;99968.28;;;7.12;100.00
4392;BME280;2210;51.938;8.488;2023-01-10T23:21:07;99963.53;;;7.19;100.00
4392;BME280;2210;51.938;8.488;2023-01-10T23:25:14;99956.41;;;7.18;100.00